Time;durP1;ratioP1;P1;durP2;ratioP2;P2;SDS_P1;SDS_P2;PMS_P1;PMS_P2;Temp;Humidity;BMP_temperature;BMP_pressure;BME280_temperature;BME280_humidity;BME280_pressure;Samples;Min_cycle;Max_cycle;Signal;HPM_P1;HPM_P2
2022/12/12 00:01:27;;;;;;;21.90;14.80;;;1.80;99.90;;;;;;5071842;28;20119;-72
2022/12/12 00:03:53;;;;;;;22.17;14.73;;;1.80;99.90;;;;;;5054948;28;20048;-72
2022/12/12 00:06:19;;;;;;;20.52;13.88;;;1.80;99.90;;;;;;5071805;28;20037;-72
2022/12/12 00:08:44;;;;;;;22.17;15.38;;;1.80;99.90;;;;;;5072295;28;20138;-72
2022/12/12 00:11:11;;;;;;;21.98;14.18;;;1.80;99.90;;;;;;5078257;28;20119;-72
2022/12/12 00:13:37;;;;;;;25.40;15.88;;;1.80;99.90;;;;;;5078605;28;20059;-72
2022/12/12 00:16:06;;;;;;;21.85;14.63;;;1.80;99.90;;;;;;5061543;28;20036;-72
2022/12/12 00:18:35;;;;;;;21.23;14.75;;;1.80;99.90;;;;;;5078335;28;20040;-72
2022/12/12 00:21:02;;;;;;;22.70;14.77;;;1.80;99.90;;;;;;5078342;28;20404;-72
2022/12/12 00:23:27;;;;;;;22.38;15.20;;;1.80;99.90;;;;;;5078249;28;20082;-72
2022/12/12 00:25:59;;;;;;;20.13;13.43;;;1.80;99.90;;;;;;5078213;28;20123;-72
2022/12/12 00:28:24;;;;;;;22.20;14.98;;;1.80;99.90;;;;;;5078307;28;20040;-72
2022/12/12 00:30:50;;;;;;;22.42;15.48;;;1.80;99.90;;;;;;5078226;28;20067;-72
2022/12/12 00:33:16;;;;;;;21.35;14.73;;;1.80;99.90;;;;;;5078182;28;20072;-72
2022/12/12 00:35:42;;;;;;;21.42;14.20;;;1.80;99.90;;;;;;5079393;28;20040;-72
2022/12/12 00:38:07;;;;;;;20.08;14.32;;;1.80;99.90;;;;;;5078182;28;20079;-72
2022/12/12 00:40:35;;;;;;;22.48;14.68;;;1.80;99.90;;;;;;5078439;28;20040;-72
2022/12/12 00:43:00;;;;;;;22.20;15.38;;;1.80;99.90;;;;;;5078287;28;20044;-72
2022/12/12 00:45:26;;;;;;;21.70;15.00;;;1.80;99.90;;;;;;5078293;28;20397;-72
2022/12/12 00:47:51;;;;;;;21.40;14.10;;;1.80;99.90;;;;;;5078006;28;20040;-72
2022/12/12 00:50:17;;;;;;;22.58;14.80;;;1.80;99.90;;;;;;5078046;28;20047;-72
2022/12/12 00:52:43;;;;;;;23.88;14.85;;;1.80;99.90;;;;;;5078062;28;20041;-72
2022/12/12 00:55:11;;;;;;;21.92;14.45;;;1.80;99.90;;;;;;5077952;28;20043;-72
2022/12/12 00:57:37;;;;;;;22.30;14.23;;;1.80;99.90;;;;;;5078380;28;20151;-72
2022/12/12 01:00:05;;;;;;;23.92;14.88;;;1.80;99.90;;;;;;5077996;28;20509;-72
2022/12/12 01:02:31;;;;;;;20.20;13.77;;;1.80;99.90;;;;;;5077894;28;20086;-72
2022/12/12 01:04:57;;;;;;;21.00;13.77;;;1.70;99.90;;;;;;5077857;28;20048;-72
2022/12/12 01:07:22;;;;;;;18.77;13.25;;;1.80;99.90;;;;;;5077937;28;20038;-72
2022/12/12 01:09:48;;;;;;;21.35;14.40;;;1.80;99.90;;;;;;5077907;28;20037;-72
2022/12/12 01:12:13;;;;;;;22.48;14.55;;;1.80;99.90;;;;;;5078145;28;20032;-72
2022/12/12 01:14:39;;;;;;;20.30;13.85;;;1.80;99.90;;;;;;5078031;28;20515;-72
2022/12/12 01:17:05;;;;;;;20.50;13.68;;;1.80;99.90;;;;;;5077802;28;20501;-72
2022/12/12 01:19:31;;;;;;;20.92;13.63;;;1.80;99.90;;;;;;5077814;28;20083;-72
2022/12/12 01:21:56;;;;;;;21.17;14.30;;;1.80;99.90;;;;;;5074270;28;20032;-72
2022/12/12 01:24:22;;;;;;;22.58;14.75;;;1.80;99.90;;;;;;5074410;28;20517;-72
2022/12/12 01:26:47;;;;;;;20.02;13.70;;;1.80;99.90;;;;;;5074514;28;20071;-72
2022/12/12 01:29:13;;;;;;;20.33;14.55;;;1.80;99.90;;;;;;5074519;28;20036;-72
2022/12/12 01:31:38;;;;;;;22.92;14.32;;;1.70;99.90;;;;;;5074684;28;20050;-72
2022/12/12 01:34:04;;;;;;;20.45;13.52;;;1.80;99.90;;;;;;5074311;28;20045;-72
2022/12/12 01:36:30;;;;;;;20.75;13.43;;;1.70;99.90;;;;;;5075627;28;20040;-72
2022/12/12 01:38:56;;;;;;;21.80;13.88;;;1.70;99.90;;;;;;5075611;28;20068;-72
2022/12/12 01:41:22;;;;;;;19.98;13.90;;;1.70;99.90;;;;;;5074307;28;20043;-72
2022/12/12 01:43:52;;;;;;;20.33;14.45;;;1.80;99.90;;;;;;5074125;28;20049;-72
2022/12/12 01:46:21;;;;;;;20.00;13.73;;;1.80;99.90;;;;;;5074038;28;20044;-72
2022/12/12 01:48:55;;;;;;;21.63;14.30;;;1.80;99.90;;;;;;5075011;28;20041;-72
2022/12/12 01:51:25;;;;;;;20.63;13.85;;;1.80;99.90;;;;;;5074085;28;20489;-72
2022/12/12 01:53:56;;;;;;;20.65;13.75;;;1.70;99.90;;;;;;5074022;28;20048;-71
2022/12/12 01:56:22;;;;;;;19.80;13.90;;;1.70;99.90;;;;;;5074079;28;20075;-72
2022/12/12 01:58:51;;;;;;;20.23;13.55;;;1.70;99.90;;;;;;5073940;28;20050;-72
2022/12/12 02:01:18;;;;;;;20.30;13.52;;;1.70;99.90;;;;;;5073892;28;20036;-72
2022/12/12 02:03:45;;;;;;;21.60;14.23;;;1.70;99.90;;;;;;5073804;28;20052;-72
2022/12/12 02:06:14;;;;;;;20.25;13.32;;;1.70;99.90;;;;;;5073946;28;20485;-72
2022/12/12 02:08:40;;;;;;;20.02;13.65;;;1.70;99.90;;;;;;5073726;28;20497;-72
2022/12/12 02:11:06;;;;;;;19.65;13.43;;;1.70;99.90;;;;;;5073662;28;20048;-72
2022/12/12 02:13:34;;;;;;;20.55;13.98;;;1.70;99.90;;;;;;5073691;28;20036;-72
2022/12/12 02:16:27;;;;;;;19.70;13.32;;;1.70;99.90;;;;;;5073466;28;20115;-72
2022/12/12 02:18:59;;;;;;;21.50;14.48;;;1.80;99.90;;;;;;5073620;28;20051;-72
2022/12/12 02:21:51;;;;;;;25.75;13.15;;;1.70;99.90;;;;;;5073521;28;20059;-72
2022/12/12 02:24:40;;;;;;;21.20;13.82;;;1.70;99.90;;;;;;5073327;28;20044;-72
2022/12/12 02:27:24;;;;;;;19.60;13.75;;;1.70;99.90;;;;;;5073672;28;20051;-72
2022/12/12 02:29:58;;;;;;;;;;;1.70;99.90;;;;;;5074048;28;20044;-72
2022/12/12 02:32:36;;;;;;;18.38;12.68;;;1.70;99.90;;;;;;5073272;28;19963;-72
2022/12/12 02:35:46;;;;;;;17.42;12.60;;;1.70;99.90;;;;;;5073166;28;20385;-72
2022/12/12 02:38:33;;;;;;;22.33;14.02;;;1.70;99.90;;;;;;5050470;28;20497;-72
2022/12/12 02:41:13;;;;;;;18.35;12.70;;;1.70;99.90;;;;;;5073393;28;20413;-72
2022/12/12 02:44:06;;;;;;;22.33;13.38;;;1.60;99.90;;;;;;5073062;28;20079;-72
2022/12/12 02:46:44;;;;;;;20.23;12.93;;;1.60;99.90;;;;;;5073241;28;20067;-72
2022/12/12 02:49:32;;;;;;;17.13;12.10;;;1.60;99.90;;;;;;5056352;28;20036;-72
2022/12/12 02:51:59;;;;;;;20.60;13.10;;;1.70;99.90;;;;;;5072922;28;20078;-72
2022/12/12 02:54:25;;;;;;;20.00;13.70;;;1.70;99.90;;;;;;5072809;28;20055;-72
2022/12/12 02:56:56;;;;;;;18.10;13.05;;;1.60;99.90;;;;;;5073074;28;20048;-72
2022/12/12 02:59:26;;;;;;;20.35;13.00;;;1.60;99.90;;;;;;5072796;28;20048;-72
2022/12/12 03:02:17;;;;;;;16.60;12.50;;;1.70;99.90;;;;;;5072695;28;20097;-72
2022/12/12 03:08:19;;;;;;;19.52;13.18;;;1.60;99.90;;;;;;5072639;28;20044;-72
2022/12/12 03:10:55;;;;;;;21.50;13.57;;;1.60;99.90;;;;;;5072583;28;20142;-72
2022/12/12 03:13:48;;;;;;;22.35;13.10;;;1.60;99.90;;;;;;5072497;28;20493;-72
2022/12/12 03:16:37;;;;;;;20.15;13.15;;;1.60;99.90;;;;;;5072505;28;20051;-72
2022/12/12 03:19:14;;;;;;;19.13;13.18;;;1.60;99.90;;;;;;5072710;28;20048;-72
2022/12/12 03:21:53;;;;;;;20.25;13.20;;;1.60;99.90;;;;;;5072387;28;20083;-72
2022/12/12 03:24:42;;;;;;;19.85;12.75;;;1.60;99.90;;;;;;5072174;28;20055;-72
2022/12/12 03:28:00;;;;;;;19.88;12.90;;;1.60;99.90;;;;;;5072280;28;20040;-72
2022/12/12 03:30:28;;;;;;;19.80;13.18;;;1.60;99.90;;;;;;5014883;28;20122;-72
2022/12/12 03:33:20;;;;;;;19.17;12.75;;;1.60;99.90;;;;;;5014970;28;20135;-72
2022/12/12 03:35:51;;;;;;;20.25;13.88;;;1.70;99.90;;;;;;5008498;28;20088;-72
2022/12/12 03:38:21;;;;;;;20.23;13.13;;;1.70;99.90;;;;;;5015169;28;20064;-72
2022/12/12 03:40:51;;;;;;;18.10;12.90;;;1.70;99.90;;;;;;5015289;28;20049;-72
2022/12/12 03:43:36;;;;;;;19.35;13.38;;;1.70;99.90;;;;;;5014936;28;20050;-72
2022/12/12 03:46:08;;;;;;;20.77;14.35;;;1.70;99.90;;;;;;5014740;28;20538;-72
2022/12/12 03:48:39;;;;;;;18.50;12.87;;;1.70;99.90;;;;;;5014788;28;20048;-72
2022/12/12 03:51:15;;;;;;;19.35;13.00;;;1.70;99.90;;;;;;5014809;28;20311;-72
2022/12/12 03:53:52;;;;;;;20.73;13.25;;;1.70;99.90;;;;;;5014653;28;20062;-72
2022/12/12 03:56:30;;;;;;;25.08;13.70;;;1.70;99.90;;;;;;5014882;28;20093;-72
2022/12/12 03:59:17;;;;;;;18.00;13.30;;;1.70;99.90;;;;;;5014659;28;20415;-72
2022/12/12 04:01:57;;;;;;;18.77;12.80;;;1.60;99.90;;;;;;5014623;28;20049;-72
2022/12/12 04:04:46;;;;;;;19.67;13.25;;;1.70;99.90;;;;;;5014383;28;20045;-71
2022/12/12 04:07:19;;;;;;;20.90;13.95;;;1.60;99.90;;;;;;5071858;28;20127;-72
2022/12/12 04:15:29;;;;;;;;;;;1.60;99.90;;;;;;5072109;28;20045;-72
2022/12/12 04:18:17;;;;;;;19.55;13.07;;;1.60;99.90;;;;;;5071709;28;19923;-72
2022/12/12 04:24:15;;;;;;;22.30;13.98;;;1.50;99.90;;;;;;5071596;28;20045;-72
2022/12/12 04:26:56;;;;;;;20.75;13.80;;;1.60;99.90;;;;;;5071607;28;20400;-72
2022/12/12 04:29:31;;;;;;;21.15;14.23;;;1.60;99.90;;;;;;5055191;28;20048;-72
2022/12/12 04:32:12;;;;;;;20.15;13.20;;;1.60;99.90;;;;;;5071605;28;20040;-72
2022/12/12 04:34:41;;;;;;;18.65;12.63;;;1.60;99.90;;;;;;5071514;28;20048;-72
2022/12/12 04:37:12;;;;;;;17.73;12.98;;;1.60;99.90;;;;;;5071485;28;20496;-72
2022/12/12 04:39:40;;;;;;;18.33;12.75;;;1.60;99.90;;;;;;5071817;28;20052;-72
2022/12/12 04:42:09;;;;;;;21.15;15.13;;;1.60;99.90;;;;;;5071760;28;20063;-72
2022/12/12 04:44:37;;;;;;;19.63;13.13;;;1.60;99.90;;;;;;5071292;28;20041;-72
2022/12/12 04:47:05;;;;;;;17.98;13.48;;;1.60;99.90;;;;;;5071282;28;20536;-72
2022/12/12 04:49:32;;;;;;;19.05;13.50;;;1.60;99.90;;;;;;5071394;28;20032;-72
2022/12/12 04:52:04;;;;;;;18.23;12.68;;;1.60;99.90;;;;;;5071403;28;20060;-72
2022/12/12 04:54:56;;;;;;;18.52;13.15;;;1.60;99.90;;;;;;5071571;28;20045;-72
2022/12/12 04:57:32;;;;;;;19.80;13.63;;;1.60;99.90;;;;;;5075424;28;20028;-72
2022/12/12 04:59:57;;;;;;;22.70;13.73;;;1.70;99.90;;;;;;5075062;28;20408;-72
2022/12/12 05:02:47;;;;;;;20.15;13.75;;;1.70;99.90;;;;;;5075237;28;20040;-72
2022/12/12 05:05:28;;;;;;;20.27;13.63;;;1.70;99.90;;;;;;5075159;28;20066;-72
2022/12/12 05:08:07;;;;;;;20.10;13.10;;;1.60;99.90;;;;;;5075215;28;20040;-72
2022/12/12 05:10:40;;;;;;;19.45;13.57;;;1.60;99.90;;;;;;5075131;28;20482;-72
2022/12/12 05:13:05;;;;;;;21.80;14.63;;;1.60;99.90;;;;;;5074895;28;20413;-72
2022/12/12 05:15:31;;;;;;;20.42;14.35;;;1.60;99.90;;;;;;5074645;28;20036;-72
2022/12/12 05:18:06;;;;;;;19.55;13.55;;;1.60;99.90;;;;;;5074749;28;20066;-72
2022/12/12 05:20:31;;;;;;;21.50;13.55;;;1.60;99.90;;;;;;5074705;28;20493;-72
2022/12/12 05:22:57;;;;;;;20.20;13.23;;;1.50;99.90;;;;;;5057946;28;20047;-72
2022/12/12 05:25:23;;;;;;;23.17;13.98;;;1.50;99.90;;;;;;5074522;28;20040;-72
2022/12/12 05:27:48;;;;;;;22.40;14.30;;;1.50;99.90;;;;;;5074561;28;20037;-72
2022/12/12 05:30:14;;;;;;;20.48;14.18;;;1.50;99.90;;;;;;5074797;28;20041;-72
2022/12/12 05:32:39;;;;;;;21.33;14.77;;;1.50;99.90;;;;;;5074482;28;20468;-72
2022/12/12 05:35:06;;;;;;;19.35;13.02;;;1.60;99.90;;;;;;5074635;28;20048;-71
2022/12/12 05:37:32;;;;;;;22.00;14.38;;;1.60;99.90;;;;;;5074336;28;20044;-72
2022/12/12 05:39:58;;;;;;;19.42;13.75;;;1.60;99.90;;;;;;5074386;28;20070;-72
2022/12/12 05:42:24;;;;;;;23.58;13.48;;;1.60;99.90;;;;;;5074304;28;20048;-72
2022/12/12 05:44:50;;;;;;;20.77;14.13;;;1.50;99.90;;;;;;5074098;28;20044;-72
2022/12/12 05:47:17;;;;;;;20.42;13.77;;;1.60;99.90;;;;;;5074074;28;20043;-72
2022/12/12 05:49:43;;;;;;;21.02;13.95;;;1.50;99.90;;;;;;5074184;28;20041;-72
2022/12/12 05:52:09;;;;;;;21.35;14.38;;;1.50;99.90;;;;;;5074151;28;20048;-72
2022/12/12 05:54:34;;;;;;;22.65;13.57;;;1.50;99.90;;;;;;5073980;28;20085;-72
2022/12/12 05:57:00;;;;;;;20.48;12.75;;;1.50;99.90;;;;;;5074027;28;20049;-72
2022/12/12 05:59:26;;;;;;;20.23;14.07;;;1.50;99.90;;;;;;5074270;28;20075;-72
2022/12/12 06:01:52;;;;;;;21.75;13.32;;;1.50;99.90;;;;;;5075145;28;20044;-72
2022/12/12 06:04:18;;;;;;;20.50;13.90;;;1.50;99.90;;;;;;5073857;28;20044;-72
2022/12/12 06:06:43;;;;;;;20.98;14.00;;;1.60;99.90;;;;;;5073398;28;20478;-72
2022/12/12 06:09:09;;;;;;;20.52;13.70;;;1.60;99.90;;;;;;5073579;28;20138;-72
2022/12/12 06:11:34;;;;;;;20.67;12.82;;;1.60;99.90;;;;;;5073742;28;20028;-72
2022/12/12 06:14:00;;;;;;;21.42;14.23;;;1.60;99.90;;;;;;5073622;28;20071;-72
2022/12/12 06:16:25;;;;;;;20.83;13.98;;;1.60;99.90;;;;;;5073599;28;20090;-72
2022/12/12 06:18:54;;;;;;;19.20;13.07;;;1.60;99.90;;;;;;5073606;28;20037;-72
2022/12/12 06:21:21;;;;;;;19.73;13.13;;;1.60;99.90;;;;;;5073582;28;20053;-72
2022/12/12 06:23:47;;;;;;;19.92;13.60;;;1.60;99.90;;;;;;5073606;28;20373;-72
2022/12/12 06:26:15;;;;;;;21.73;14.25;;;1.60;99.90;;;;;;5073382;28;20489;-72
2022/12/12 06:28:40;;;;;;;19.35;13.32;;;1.60;99.90;;;;;;5073411;28;20036;-72
2022/12/12 06:31:08;;;;;;;23.65;13.73;;;1.60;99.90;;;;;;5073349;28;20040;-72
2022/12/12 06:33:34;;;;;;;19.42;12.88;;;1.60;99.90;;;;;;5073553;28;20447;-72
2022/12/12 06:36:06;;;;;;;22.42;14.07;;;1.60;99.90;;;;;;5073227;28;20170;-72
2022/12/12 06:38:33;;;;;;;20.20;13.88;;;1.60;99.90;;;;;;5073205;28;20052;-72
2022/12/12 06:40:59;;;;;;;23.42;13.82;;;1.50;99.90;;;;;;5073171;28;20040;-72
2022/12/12 06:43:25;;;;;;;23.45;13.55;;;1.50;99.90;;;;;;5073004;28;20051;-72
2022/12/12 06:45:51;;;;;;;22.80;14.77;;;1.50;99.90;;;;;;5073256;28;20036;-72
2022/12/12 06:48:16;;;;;;;21.17;13.57;;;1.50;99.90;;;;;;5072953;28;20587;-72
2022/12/12 06:50:44;;;;;;;20.10;13.75;;;1.50;99.90;;;;;;5072993;28;20042;-72
2022/12/12 06:53:10;;;;;;;20.92;14.15;;;1.50;99.90;;;;;;5073597;28;20041;-71
2022/12/12 06:55:42;;;;;;;22.02;14.27;;;1.50;99.90;;;;;;5073059;28;20045;-72
2022/12/12 06:58:08;;;;;;;21.17;14.40;;;1.50;99.90;;;;;;5072816;28;20091;-72
2022/12/12 07:00:34;;;;;;;19.45;13.43;;;1.50;99.90;;;;;;5073059;28;20084;-72
2022/12/12 07:03:00;;;;;;;20.85;14.52;;;1.50;99.90;;;;;;5072638;28;20408;-72
2022/12/12 07:05:25;;;;;;;19.75;14.13;;;1.50;99.90;;;;;;5072588;28;20036;-72
2022/12/12 07:07:51;;;;;;;20.25;14.35;;;1.60;99.90;;;;;;5072638;28;20037;-72
2022/12/12 07:10:17;;;;;;;20.15;14.18;;;1.50;99.90;;;;;;5072563;28;20406;-72
2022/12/12 07:12:42;;;;;;;23.83;15.77;;;1.60;99.90;;;;;;5072480;28;20041;-72
2022/12/12 07:15:08;;;;;;;21.70;15.65;;;1.60;99.90;;;;;;5072392;28;20052;-72
2022/12/12 07:17:34;;;;;;;25.60;15.95;;;1.60;99.90;;;;;;5072692;28;20127;-72
2022/12/12 07:20:00;;;;;;;23.65;14.93;;;1.60;99.90;;;;;;5071450;28;20040;-72
2022/12/12 07:22:25;;;;;;;23.45;15.02;;;1.50;99.90;;;;;;5072360;28;20037;-72
2022/12/12 07:24:51;;;;;;;25.38;15.73;;;1.50;99.90;;;;;;5072192;28;20102;-72
2022/12/12 07:27:17;;;;;;;24.63;16.35;;;1.50;99.90;;;;;;5072308;28;20087;-72
2022/12/12 07:29:43;;;;;;;24.15;15.00;;;1.50;99.90;;;;;;5072233;28;20048;-72
2022/12/12 07:32:09;;;;;;;21.98;15.73;;;1.50;99.90;;;;;;5072189;28;20043;-72
2022/12/12 07:34:35;;;;;;;26.45;17.95;;;1.50;99.90;;;;;;5072124;28;20044;-72
2022/12/12 07:37:01;;;;;;;24.58;17.10;;;1.40;99.90;;;;;;5072119;28;20094;-72
2022/12/12 07:39:31;;;;;;;23.23;16.70;;;1.40;99.90;;;;;;5072120;28;20052;-72
2022/12/12 07:41:57;;;;;;;27.33;17.70;;;1.40;99.90;;;;;;5073318;28;20040;-72
2022/12/12 07:44:22;;;;;;;24.75;15.77;;;1.40;99.90;;;;;;5071885;28;20056;-72
2022/12/12 07:46:48;;;;;;;21.30;15.50;;;1.40;99.90;;;;;;5071898;28;20079;-72
2022/12/12 07:49:13;;;;;;;24.45;16.02;;;1.50;99.90;;;;;;5072218;28;20032;-72
2022/12/12 07:51:39;;;;;;;24.50;15.65;;;1.40;99.90;;;;;;5072236;28;20035;-72
2022/12/12 07:54:05;;;;;;;25.45;16.95;;;1.40;99.90;;;;;;5055432;28;20495;-72
2022/12/12 07:56:31;;;;;;;28.00;18.83;;;1.50;99.90;;;;;;5072169;28;20134;-72
2022/12/12 07:58:56;;;;;;;35.45;23.42;;;1.40;99.90;;;;;;5072325;28;20537;-72
2022/12/12 08:01:24;;;;;;;34.20;21.58;;;1.40;99.90;;;;;;5071837;28;20097;-72
2022/12/12 08:03:51;;;;;;;25.55;16.85;;;1.40;99.90;;;;;;5071666;28;20045;-72
2022/12/12 08:06:19;;;;;;;28.23;17.35;;;1.40;99.90;;;;;;5072149;28;20040;-72
2022/12/12 08:08:45;;;;;;;27.17;17.73;;;1.40;99.90;;;;;;5071801;28;20111;-72
2022/12/12 08:11:13;;;;;;;29.25;16.83;;;1.40;99.90;;;;;;5072063;28;20045;-72
2022/12/12 08:13:40;;;;;;;24.90;16.40;;;1.50;99.90;;;;;;5071720;28;20044;-72
2022/12/12 08:16:10;;;;;;;28.05;17.02;;;1.50;99.90;;;;;;5071736;28;20052;-72
2022/12/12 08:18:36;;;;;;;24.23;16.30;;;1.50;99.90;;;;;;5072157;28;20485;-72
2022/12/12 08:21:06;;;;;;;26.48;17.08;;;1.40;99.90;;;;;;5071865;28;20047;-72
2022/12/12 08:23:32;;;;;;;25.35;17.40;;;1.50;99.90;;;;;;5071987;28;20390;-72
2022/12/12 08:26:03;;;;;;;26.73;16.77;;;1.50;99.90;;;;;;5071853;28;20046;-72
2022/12/12 08:28:28;;;;;;;24.20;16.30;;;1.50;99.90;;;;;;5071923;28;20040;-72
2022/12/12 08:30:54;;;;;;;22.27;14.98;;;1.50;99.90;;;;;;5073505;28;20504;-72
2022/12/12 08:33:19;;;;;;;21.85;15.27;;;1.50;99.90;;;;;;5075594;28;20412;-73
2022/12/12 08:35:45;;;;;;;21.35;14.32;;;1.50;99.90;;;;;;5076150;28;20071;-72
2022/12/12 08:38:11;;;;;;;26.00;14.43;;;1.50;99.90;;;;;;5076761;28;20040;-72
2022/12/12 08:40:36;;;;;;;22.33;14.75;;;1.50;99.90;;;;;;5075694;28;20086;-72
2022/12/12 08:43:02;;;;;;;23.88;15.07;;;1.50;99.90;;;;;;5075331;28;20401;-72
2022/12/12 08:45:27;;;;;;;20.50;14.43;;;1.60;99.90;;;;;;5075332;28;20040;-72
2022/12/12 08:47:53;;;;;;;21.63;15.40;;;1.60;99.90;;;;;;5075245;28;20123;-72
2022/12/12 08:50:18;;;;;;;24.08;16.02;;;1.60;99.90;;;;;;5075274;28;20040;-72
2022/12/12 08:52:44;;;;;;;23.15;15.63;;;1.60;99.90;;;;;;5075267;28;20040;-72
2022/12/12 08:55:09;;;;;;;19.73;14.38;;;1.60;99.90;;;;;;5075117;28;20041;-72
2022/12/12 08:57:35;;;;;;;21.90;14.57;;;1.60;99.90;;;;;;5076644;28;20090;-72
2022/12/12 09:00:02;;;;;;;21.67;14.48;;;1.60;99.90;;;;;;5075112;28;20124;-72
2022/12/12 09:02:28;;;;;;;20.30;13.93;;;1.60;99.90;;;;;;5075040;28;20040;-72
2022/12/12 09:04:53;;;;;;;21.17;14.45;;;1.60;99.90;;;;;;5074841;28;20171;-72
2022/12/12 09:07:19;;;;;;;22.27;14.40;;;1.60;99.90;;;;;;5076193;28;20082;-72
2022/12/12 09:09:45;;;;;;;19.83;14.25;;;1.70;99.90;;;;;;5075154;28;20048;-72
2022/12/12 09:12:10;;;;;;;21.98;14.15;;;1.60;99.90;;;;;;5074882;28;20456;-72
2022/12/12 09:14:36;;;;;;;21.50;14.00;;;1.70;99.90;;;;;;5074749;28;20063;-72
2022/12/12 09:17:02;;;;;;;21.58;13.90;;;1.70;99.90;;;;;;5075034;28;20047;-72
2022/12/12 09:19:27;;;;;;;21.95;15.32;;;1.70;99.90;;;;;;5074771;28;20045;-72
2022/12/12 09:21:53;;;;;;;21.35;15.13;;;1.80;99.90;;;;;;5074707;28;20099;-72
2022/12/12 09:24:18;;;;;;;20.02;13.82;;;1.80;99.90;;;;;;5074518;28;20041;-72
2022/12/12 09:26:44;;;;;;;21.95;14.25;;;1.80;99.90;;;;;;5057971;28;20079;-72
2022/12/12 09:29:10;;;;;;;18.80;13.85;;;1.80;99.90;;;;;;5074821;28;20070;-72
2022/12/12 09:31:35;;;;;;;19.05;14.02;;;1.90;99.90;;;;;;5074523;28;20086;-72
2022/12/12 09:34:01;;;;;;;20.27;13.93;;;1.90;99.90;;;;;;5074411;28;20390;-72
2022/12/12 09:36:26;;;;;;;19.75;14.32;;;1.90;99.90;;;;;;5074675;28;20035;-72
2022/12/12 09:38:52;;;;;;;22.42;14.48;;;2.00;99.90;;;;;;5074430;28;20545;-72
2022/12/12 09:41:22;;;;;;;20.23;14.43;;;2.00;99.90;;;;;;5074144;28;20067;-72
2022/12/12 09:44:07;;;;;;;21.95;15.10;;;2.00;99.90;;;;;;5073441;28;20036;-72
2022/12/12 09:46:46;;;;;;;24.77;15.80;;;2.10;99.90;;;;;;5074429;28;20044;-72
2022/12/12 09:49:12;;;;;;;20.88;14.27;;;2.10;99.90;;;;;;5074562;28;20059;-72
2022/12/12 09:51:38;;;;;;;19.60;13.90;;;2.10;99.90;;;;;;5074146;28;20040;-72
2022/12/12 09:54:05;;;;;;;20.40;14.23;;;2.10;99.90;;;;;;5074469;28;20048;-72
2022/12/12 09:56:41;;;;;;;20.10;14.43;;;2.10;99.90;;;;;;5075316;28;20040;-72
2022/12/12 09:59:21;;;;;;;20.25;14.27;;;2.10;99.90;;;;;;5074073;28;20120;-72
2022/12/12 10:01:53;;;;;;;21.10;14.38;;;2.20;99.90;;;;;;5074025;28;20043;-72
2022/12/12 10:04:38;;;;;;;21.45;14.25;;;2.20;99.90;;;;;;5073843;28;20055;-72
2022/12/12 10:07:14;;;;;;;18.05;13.00;;;2.20;99.90;;;;;;5073912;28;20489;-72
2022/12/12 10:10:00;;;;;;;21.75;13.55;;;2.30;99.90;;;;;;5074180;28;20049;-72
2022/12/12 10:12:26;;;;;;;21.67;14.95;;;2.30;99.90;;;;;;5073824;28;20036;-72
2022/12/12 10:15:35;;;;;;;17.08;12.65;;;2.30;99.90;;;;;;5073616;28;20409;-72
2022/12/12 10:18:08;;;;;;;20.05;13.07;;;2.30;99.90;;;;;;5073485;28;20408;-72
2022/12/12 10:20:44;;;;;;;21.75;13.70;;;2.40;99.90;;;;;;5074878;28;20496;-72
2022/12/12 10:23:37;;;;;;;18.42;12.68;;;2.40;99.90;;;;;;5073513;28;20497;-72
2022/12/12 10:26:14;;;;;;;20.23;13.68;;;2.50;99.90;;;;;;5073722;28;20079;-74
2022/12/12 10:28:39;;;;;;;20.23;14.05;;;2.50;99.90;;;;;;5074440;28;20044;-73
2022/12/12 10:31:35;;;;;;;18.30;13.07;;;2.50;99.90;;;;;;5073647;28;20085;-74
2022/12/12 10:34:28;;;;;;;18.50;13.18;;;2.60;99.90;;;;;;5073231;28;20075;-74
2022/12/12 10:37:02;;;;;;;22.08;14.38;;;2.70;99.90;;;;;;5073374;28;20486;-73
2022/12/12 10:39:48;;;;;;;19.20;14.73;;;2.70;99.90;;;;;;5073256;28;20083;-73
2022/12/12 10:42:29;;;;;;;17.42;13.05;;;2.70;99.90;;;;;;5073978;28;20040;-73
2022/12/12 10:45:03;;;;;;;21.48;14.38;;;2.70;99.90;;;;;;5073358;28;20048;-73
2022/12/12 10:47:29;;;;;;;17.95;13.20;;;2.80;99.90;;;;;;5073000;28;20490;-73
2022/12/12 10:50:10;;;;;;;19.98;14.18;;;2.80;99.90;;;;;;5073033;28;20036;-73
2022/12/12 10:52:36;;;;;;;17.20;13.05;;;2.90;99.90;;;;;;5073207;28;20052;-73
2022/12/12 10:55:32;;;;;;;20.92;13.60;;;2.80;99.90;;;;;;5072579;28;20493;-73
2022/12/12 10:58:02;;;;;;;21.90;14.50;;;2.80;99.90;;;;;;5049765;28;20048;-73
2022/12/12 11:00:40;;;;;;;26.65;15.18;;;2.80;99.90;;;;;;5072797;28;20083;-73
2022/12/12 11:03:28;;;;;;;21.83;15.65;;;2.80;99.90;;;;;;5073076;28;20041;-73
2022/12/12 11:05:55;;;;;;;23.58;15.43;;;2.90;99.90;;;;;;5072955;28;20086;-72
2022/12/12 11:08:28;;;;;;;23.05;15.85;;;2.90;99.90;;;;;;5072807;28;20040;-72
2022/12/12 11:11:19;;;;;;;22.58;15.35;;;2.90;99.90;;;;;;5072635;28;20040;-72
2022/12/12 11:13:50;;;;;;;21.73;14.57;;;2.90;99.90;;;;;;5065512;28;20056;-72
2022/12/12 11:16:28;;;;;;;23.23;15.15;;;3.00;99.90;;;;;;5072461;28;20131;-72
2022/12/12 11:19:01;;;;;;;22.55;15.55;;;3.00;99.90;;;;;;5072473;28;20052;-72
2022/12/12 11:21:30;;;;;;;22.67;16.23;;;3.00;99.90;;;;;;5072366;28;20090;-72
2022/12/12 11:23:57;;;;;;;21.88;15.98;;;3.00;99.90;;;;;;5072330;28;20044;-72
2022/12/12 11:26:25;;;;;;;25.58;16.45;;;2.90;99.90;;;;;;5072337;28;20047;-72
2022/12/12 11:29:02;;;;;;;25.48;16.83;;;2.90;99.90;;;;;;5072217;28;20440;-72
2022/12/12 11:31:31;;;;;;;23.70;15.82;;;2.90;99.90;;;;;;5072317;28;20048;-72
2022/12/12 11:34:06;;;;;;;24.15;17.10;;;2.90;99.90;;;;;;5073003;28;20076;-72
2022/12/12 11:36:37;;;;;;;23.90;17.45;;;3.00;99.90;;;;;;5072188;28;20083;-72
2022/12/12 11:39:20;;;;;;;22.95;16.23;;;3.00;99.90;;;;;;5072153;28;20048;-72
2022/12/12 11:42:02;;;;;;;21.83;15.68;;;3.00;99.90;;;;;;5072149;28;20489;-72
2022/12/12 11:44:35;;;;;;;22.55;15.55;;;3.00;99.90;;;;;;5072005;28;20040;-72
2022/12/12 11:47:29;;;;;;;22.92;15.90;;;3.00;99.90;;;;;;5071941;28;20036;-72
2022/12/12 11:49:57;;;;;;;25.27;17.25;;;3.00;99.90;;;;;;5072300;28;20143;-72
2022/12/12 11:52:25;;;;;;;23.38;15.65;;;2.90;99.90;;;;;;5071987;28;20040;-72
2022/12/12 11:54:52;;;;;;;23.38;16.67;;;2.90;99.90;;;;;;5071892;28;20051;-72
2022/12/12 11:57:35;;;;;;;25.17;16.38;;;2.90;99.90;;;;;;5071990;28;20056;-72
2022/12/12 12:00:21;;;;;;;25.60;16.95;;;2.90;99.90;;;;;;5072232;28;20119;-72
2022/12/12 12:03:12;;;;;;;26.08;17.10;;;2.90;99.90;;;;;;5071862;28;20076;-72
2022/12/12 12:06:12;;;;;;;25.42;17.75;;;2.90;99.90;;;;;;5071198;28;20102;-72
2022/12/12 12:08:56;;;;;;;27.02;18.27;;;2.90;99.90;;;;;;5072108;28;20485;-72
2022/12/12 12:11:48;;;;;;;26.73;17.38;;;2.90;99.90;;;;;;5071877;28;20044;-72
2022/12/12 12:14:35;;;;;;;27.23;17.60;;;2.90;99.90;;;;;;5071928;28;20531;-72
2022/12/12 12:17:06;;;;;;;27.00;17.83;;;2.90;99.90;;;;;;5071866;28;20079;-72
2022/12/12 12:19:48;;;;;;;23.73;17.40;;;2.90;99.90;;;;;;5071814;28;20094;-72
2022/12/12 12:22:21;;;;;;;28.85;18.58;;;3.00;99.90;;;;;;5071855;28;20082;-72
2022/12/12 12:25:31;;;;;;;27.73;18.47;;;2.90;99.90;;;;;;5071701;28;20040;-72
2022/12/12 12:28:29;;;;;;;31.25;19.45;;;3.00;99.90;;;;;;5072027;28;20145;-72
2022/12/12 12:31:41;;;;;;;26.30;18.02;;;3.10;99.90;;;;;;5071771;28;20401;-72
2022/12/12 12:34:19;;;;;;;30.30;18.85;;;3.20;99.90;;;;;;5071567;28;20051;-72
2022/12/12 12:37:13;;;;;;;27.33;17.85;;;3.20;99.90;;;;;;5072826;28;20037;-71
2022/12/12 12:39:51;;;;;;;;;;;3.20;99.90;;;;;;5073217;28;20051;-72
2022/12/12 12:42:55;;;;;;;28.85;19.25;;;3.10;99.90;;;;;;5072815;28;19939;-76
2022/12/12 12:45:35;;;;;;;26.63;18.00;;;3.10;99.90;;;;;;5071341;28;20044;-72
2022/12/12 12:48:13;;;;;;;27.60;18.65;;;3.10;99.90;;;;;;5071299;28;20290;-72
2022/12/12 12:50:47;;;;;;;26.90;18.50;;;3.00;99.90;;;;;;5071403;28;20489;-72
2022/12/12 12:53:22;;;;;;;29.30;19.77;;;3.00;99.90;;;;;;5071411;28;20072;-72
2022/12/12 12:55:52;;;;;;;28.13;19.17;;;3.00;99.90;;;;;;5071487;28;20518;-72
2022/12/12 12:58:33;;;;;;;28.92;18.98;;;3.00;99.90;;;;;;5072423;28;20041;-72
2022/12/12 13:01:14;;;;;;;29.50;20.08;;;3.00;99.90;;;;;;5071240;28;20405;-72
2022/12/12 13:03:53;;;;;;;29.38;19.02;;;3.00;99.90;;;;;;5072777;28;20052;-72
2022/12/12 13:06:32;;;;;;;25.77;17.63;;;3.00;99.90;;;;;;5071488;28;20044;-72
2022/12/12 13:09:05;;;;;;;27.67;19.48;;;3.00;99.90;;;;;;5071214;28;20044;-72
2022/12/12 13:11:43;;;;;;;27.45;18.38;;;2.90;99.90;;;;;;5071149;28;20486;-72
2022/12/12 13:14:32;;;;;;;26.00;18.13;;;2.90;99.90;;;;;;5071058;28;20053;-72
2022/12/12 13:17:05;;;;;;;26.40;18.50;;;2.90;99.90;;;;;;5072929;28;20045;-72